Genoa, Ohio
Current Conditions -  °F | °C
As of 4:53 PM on Monday 20 Oct 2014 (Local Time) from KTDZ Reporting Station
Overcast Overcast  
Wind Chill: 54°   Ceiling: 1600
Heat Index: 54°   Visibility: 10mi
Dew Point: 49°   Wind: 8mph
Humidity: 83%   Direction: 250°WSW
Pressure: 29.83"   Gusts: NA
Location:  41.52°N, 83.36°W
Report Text: KTDZ 202053Z AUTO 25007KT 10SM OVC016 12/09 A2983 RMK AO2 SLP102 60002 T01220094 53003 TSNO
Loading
Personal Weather Stations






























Interactive Weather Map
Tropical Storm Tracking
New forecast layout! Learn more

10-Day Weather Forecast

Advertisements
Track Severe Weather on mobile